createdAt,value
2023-04-21T00:01:46.151Z,10.29
2023-04-21T00:04:13.747Z,10.63
2023-04-21T00:06:41.598Z,10.42
2023-04-21T00:09:07.983Z,10.51
2023-04-21T00:11:34.408Z,10.31
2023-04-21T00:14:00.825Z,10.22
2023-04-21T00:16:27.359Z,10.41
2023-04-21T00:18:53.774Z,10.46
2023-04-21T00:21:20.144Z,10.67
2023-04-21T00:23:47.371Z,10.17
2023-04-21T00:26:13.790Z,10.22
2023-04-21T00:28:43.279Z,10.39
2023-04-21T00:31:09.709Z,10.51
2023-04-21T00:33:36.162Z,10.43
2023-04-21T00:36:02.528Z,10.41
2023-04-21T00:38:28.914Z,10.27
2023-04-21T00:40:55.505Z,10.13
2023-04-21T00:43:22.018Z,10.27
2023-04-21T00:45:48.432Z,10.55
2023-04-21T00:48:14.875Z,10.43
2023-04-21T00:50:41.352Z,10.53
2023-04-21T00:53:07.730Z,10.31
2023-04-21T00:55:34.134Z,10.43
2023-04-21T00:58:02.375Z,10.46
2023-04-21T01:00:29.145Z,10.30
2023-04-21T01:02:56.445Z,10.31
2023-04-21T01:05:23.028Z,10.68
2023-04-21T01:07:49.394Z,10.31
2023-04-21T01:10:15.790Z,10.60
2023-04-21T01:12:42.167Z,10.70
2023-04-21T01:15:08.533Z,10.84
2023-04-21T01:17:38.854Z,10.49
2023-04-21T01:20:06.216Z,10.50
2023-04-21T01:22:33.706Z,10.62
2023-04-21T01:25:00.110Z,10.36
2023-04-21T01:27:26.942Z,10.50
2023-04-21T01:29:53.756Z,10.61
2023-04-21T01:32:20.295Z,10.97
2023-04-21T01:34:46.856Z,10.71
2023-04-21T01:37:13.355Z,10.41
2023-04-21T01:39:39.968Z,10.30
2023-04-21T01:42:06.380Z,10.60
2023-04-21T01:44:32.777Z,10.42
2023-04-21T01:46:59.105Z,10.37
2023-04-21T01:49:25.518Z,10.31
2023-04-21T01:51:51.887Z,10.03
2023-04-21T01:54:19.403Z,10.14
2023-04-21T01:56:45.850Z,10.61
2023-04-21T01:59:12.355Z,10.57
2023-04-21T02:01:38.789Z,10.86
2023-04-21T02:04:05.525Z,10.83
2023-04-21T02:06:32.152Z,10.73
2023-04-21T02:08:59.012Z,10.63
2023-04-21T02:11:27.733Z,10.84
2023-04-21T02:13:54.206Z,10.82
2023-04-21T02:16:20.823Z,10.63
2023-04-21T02:18:48.389Z,10.94
2023-04-21T02:21:15.600Z,10.43
2023-04-21T02:23:41.983Z,10.61
2023-04-21T02:26:08.342Z,10.26
2023-04-21T02:28:34.784Z,10.57
2023-04-21T02:31:01.170Z,10.21
2023-04-21T02:33:27.635Z,10.58
2023-04-21T02:35:54.034Z,10.91
2023-04-21T02:38:20.437Z,10.68
2023-04-21T02:40:46.776Z,10.68
2023-04-21T02:43:13.289Z,11.10
2023-04-21T02:45:39.655Z,10.99
2023-04-21T02:48:06.102Z,10.98
2023-04-21T02:50:32.554Z,11.08
2023-04-21T02:52:58.913Z,10.83
2023-04-21T02:55:25.256Z,10.77
2023-04-21T02:57:51.656Z,10.94
2023-04-21T03:00:18.033Z,10.61
2023-04-21T03:02:44.857Z,11.21
2023-04-21T03:05:12.555Z,10.98
2023-04-21T03:07:38.937Z,11.29
2023-04-21T03:10:06.334Z,11.31
2023-04-21T03:12:32.717Z,11.27
2023-04-21T03:14:59.127Z,11.23
2023-04-21T03:17:25.565Z,11.33
2023-04-21T03:19:52.050Z,11.14
2023-04-21T03:22:18.486Z,11.24
2023-04-21T03:24:44.838Z,10.91
2023-04-21T03:27:11.348Z,11.16
2023-04-21T03:29:37.971Z,10.88
2023-04-21T03:32:04.439Z,11.12
2023-04-21T03:34:30.956Z,11.39
2023-04-21T03:36:59.507Z,11.16
2023-04-21T03:39:26.171Z,11.46
2023-04-21T03:41:53.339Z,11.53
2023-04-21T03:44:19.750Z,11.42
2023-04-21T03:46:46.121Z,11.42
2023-04-21T03:49:12.619Z,11.44
2023-04-21T03:51:38.976Z,11.52
2023-04-21T03:54:05.372Z,11.54
2023-04-21T03:56:31.817Z,11.53
2023-04-21T03:58:58.202Z,11.71
2023-04-21T04:01:24.604Z,11.74
2023-04-21T04:03:51.206Z,11.61
2023-04-21T04:06:17.750Z,11.70
2023-04-21T04:08:44.103Z,11.77
2023-04-21T04:11:10.444Z,11.72
2023-04-21T04:13:36.856Z,11.73
2023-04-21T04:16:03.318Z,11.59
2023-04-21T04:18:29.738Z,11.57
2023-04-21T04:20:56.062Z,11.69
2023-04-21T04:23:22.419Z,11.90
2023-04-21T04:25:49.293Z,11.74
2023-04-21T04:28:16.064Z,11.91
2023-04-21T04:30:42.709Z,11.63
2023-04-21T04:33:10.118Z,11.62
2023-04-21T04:35:36.659Z,11.96
2023-04-21T04:38:04.310Z,11.73
2023-04-21T04:40:30.763Z,11.73
2023-04-21T04:42:57.226Z,11.89
2023-04-21T04:45:23.646Z,12.05
2023-04-21T04:47:50.149Z,11.96
2023-04-21T04:50:16.584Z,11.93
2023-04-21T04:52:46.753Z,11.95
2023-04-21T04:55:13.332Z,11.72
2023-04-21T04:57:39.814Z,11.62
2023-04-21T05:00:07.287Z,11.53
2023-04-21T05:02:33.806Z,11.62
2023-04-21T05:05:00.396Z,12.02
2023-04-21T05:07:26.807Z,11.97
2023-04-21T05:09:53.203Z,12.22
2023-04-21T05:12:19.580Z,12.27
2023-04-21T05:14:45.923Z,11.98
2023-04-21T05:17:12.289Z,12.31
2023-04-21T05:19:38.590Z,12.26
2023-04-21T05:22:06.593Z,12.48
2023-04-21T05:24:33.017Z,12.36
2023-04-21T05:26:59.529Z,12.14
2023-04-21T05:29:25.902Z,12.33
2023-04-21T05:31:52.292Z,12.26
2023-04-21T05:34:19.081Z,12.38
2023-04-21T05:36:45.727Z,12.54
2023-04-21T05:39:12.117Z,12.11
2023-04-21T05:41:38.514Z,12.02
2023-04-21T05:44:05.012Z,12.03
2023-04-21T05:46:31.556Z,12.48
2023-04-21T05:48:58.056Z,12.35
2023-04-21T05:51:24.515Z,12.55
2023-04-21T05:53:50.888Z,12.31
2023-04-21T05:56:17.232Z,12.50
2023-04-21T05:58:43.689Z,12.31
2023-04-21T06:01:10.285Z,12.76
2023-04-21T06:03:36.840Z,12.65
2023-04-21T06:06:03.472Z,12.63
2023-04-21T06:08:29.854Z,12.62
2023-04-21T06:10:56.354Z,12.68
2023-04-21T06:13:22.772Z,12.64
2023-04-21T06:15:49.129Z,13.30
2023-04-21T06:18:16.270Z,13.29
2023-04-21T06:20:42.778Z,13.27
2023-04-21T06:23:09.634Z,13.37
2023-04-21T06:25:36.391Z,13.42
2023-04-21T06:28:02.845Z,13.55
2023-04-21T06:30:29.202Z,13.97
2023-04-21T06:32:55.603Z,14.15
2023-04-21T06:35:22.110Z,14.07
2023-04-21T06:37:48.502Z,14.21
2023-04-21T06:40:16.343Z,13.97
2023-04-21T06:42:42.904Z,14.73
2023-04-21T06:45:09.644Z,14.55
2023-04-21T06:47:36.178Z,14.59
2023-04-21T06:50:02.585Z,14.72
2023-04-21T06:52:28.921Z,14.45
2023-04-21T06:54:55.502Z,14.46
2023-04-21T06:57:21.843Z,14.31
2023-04-21T06:59:48.274Z,14.56
2023-04-21T07:02:14.722Z,14.43
2023-04-21T07:04:41.257Z,14.69
2023-04-21T07:07:07.697Z,14.52
2023-04-21T07:09:34.099Z,14.50
2023-04-21T07:12:01.042Z,14.37
2023-04-21T07:14:27.420Z,14.12
2023-04-21T07:16:55.011Z,14.28
2023-04-21T07:19:21.544Z,14.24
2023-04-21T07:21:48.033Z,14.41
2023-04-21T07:24:14.472Z,14.49
2023-04-21T07:26:40.850Z,14.67
2023-04-21T07:29:07.227Z,14.88
2023-04-21T07:31:33.867Z,14.57
2023-04-21T07:34:00.645Z,14.65
2023-04-21T07:36:29.766Z,14.62
2023-04-21T07:38:57.509Z,14.89
2023-04-21T07:41:23.859Z,15.07
2023-04-21T07:43:52.501Z,14.95
2023-04-21T07:46:20.377Z,15.24
2023-04-21T07:48:46.827Z,14.91
2023-04-21T07:51:13.185Z,14.79
2023-04-21T07:53:39.622Z,15.03
2023-04-21T07:56:07.397Z,14.96
2023-04-21T07:58:33.796Z,15.09
2023-04-21T08:01:00.198Z,15.22
2023-04-21T08:03:27.162Z,15.50
2023-04-21T08:05:54.144Z,15.49
2023-04-21T08:08:21.943Z,15.20
2023-04-21T08:10:48.450Z,15.44
2023-04-21T08:13:14.867Z,15.19
2023-04-21T08:15:41.768Z,15.39
2023-04-21T08:18:08.172Z,14.59
2023-04-21T08:20:34.615Z,14.03
2023-04-21T08:23:01.133Z,14.90
2023-04-21T08:25:27.560Z,15.31
2023-04-21T08:27:54.000Z,15.14
2023-04-21T08:30:20.357Z,15.37
2023-04-21T08:32:46.837Z,15.25
2023-04-21T08:35:13.328Z,15.09
2023-04-21T08:37:40.082Z,15.05
2023-04-21T08:40:06.481Z,15.05
2023-04-21T08:42:32.866Z,15.17
2023-04-21T08:44:59.245Z,15.31
2023-04-21T08:47:25.742Z,15.68
2023-04-21T08:49:52.175Z,15.72
2023-04-21T08:52:18.553Z,15.72
2023-04-21T08:54:44.959Z,15.97
2023-04-21T08:57:15.890Z,15.87
2023-04-21T08:59:42.612Z,15.49
2023-04-21T09:02:10.040Z,15.33
2023-04-21T09:04:36.741Z,15.54
2023-04-21T09:07:03.319Z,15.68
2023-04-21T09:09:31.380Z,15.83
2023-04-21T09:11:58.443Z,15.77
2023-04-21T09:14:24.799Z,15.72
2023-04-21T09:16:51.307Z,16.08
2023-04-21T09:19:17.955Z,15.48
2023-04-21T09:21:44.540Z,15.86
2023-04-21T09:24:13.063Z,15.82
2023-04-21T09:26:39.462Z,15.76
2023-04-21T09:29:05.999Z,16.00
2023-04-21T09:31:32.366Z,15.95
2023-04-21T09:34:01.214Z,15.35
2023-04-21T09:36:28.319Z,16.00
2023-04-21T09:39:15.266Z,15.85
2023-04-21T09:41:41.283Z,15.69
2023-04-21T09:44:08.229Z,16.17
2023-04-21T09:46:34.704Z,16.12
2023-04-21T09:49:01.457Z,16.59
2023-04-21T09:51:42.745Z,16.10
2023-04-21T09:54:28.191Z,16.24
2023-04-21T09:56:56.417Z,16.08
2023-04-21T09:59:23.705Z,15.80
2023-04-21T10:01:51.115Z,16.11
2023-04-21T10:04:17.966Z,16.35
2023-04-21T10:06:44.750Z,16.42
2023-04-21T10:09:11.089Z,16.43
2023-04-21T10:11:37.524Z,16.64
2023-04-21T10:14:03.883Z,16.01
2023-04-21T10:16:30.432Z,15.65
2023-04-21T10:18:56.810Z,15.85
2023-04-21T10:21:24.350Z,15.71
2023-04-21T10:23:52.443Z,15.75
2023-04-21T10:26:18.827Z,15.88
2023-04-21T10:28:45.282Z,15.39
2023-04-21T10:31:11.656Z,15.66
2023-04-21T10:33:38.067Z,15.51
2023-04-21T10:36:05.478Z,16.07
2023-04-21T10:38:31.817Z,15.79
2023-04-21T10:40:58.194Z,16.31
2023-04-21T10:43:24.577Z,16.75
2023-04-21T10:45:50.921Z,16.71
2023-04-21T10:48:17.306Z,16.71
2023-04-21T10:50:45.316Z,16.77
2023-04-21T10:53:11.824Z,17.01
2023-04-21T10:55:38.272Z,16.90
2023-04-21T10:58:04.717Z,16.81
2023-04-21T11:00:31.505Z,16.96
2023-04-21T11:02:58.335Z,16.99
2023-04-21T11:05:24.876Z,16.62
2023-04-21T11:07:51.381Z,16.36
2023-04-21T11:10:17.758Z,16.72
2023-04-21T11:12:44.147Z,17.52
2023-04-21T11:15:10.523Z,17.44
2023-04-21T11:17:38.277Z,16.64
2023-04-21T11:20:04.807Z,16.61
2023-04-21T11:22:31.198Z,17.14
2023-04-21T11:24:57.797Z,16.22
2023-04-21T11:27:24.240Z,16.39
2023-04-21T11:29:50.676Z,16.41
2023-04-21T11:32:17.148Z,16.77
2023-04-21T11:34:43.549Z,17.29
2023-04-21T11:37:10.005Z,16.81
2023-04-21T11:39:36.408Z,17.09
2023-04-21T11:42:03.030Z,17.76
2023-04-21T11:44:29.367Z,16.90
2023-04-21T11:46:55.730Z,16.85
2023-04-21T11:49:22.058Z,16.59
2023-04-21T11:51:48.448Z,17.45
2023-04-21T11:54:14.799Z,17.38
2023-04-21T11:56:41.137Z,16.92
2023-04-21T11:59:07.698Z,16.72
2023-04-21T12:01:34.104Z,16.53
2023-04-21T12:04:01.421Z,17.22
2023-04-21T12:06:31.404Z,16.43
2023-04-21T12:08:57.887Z,17.59
2023-04-21T12:11:24.346Z,16.80
2023-04-21T12:13:50.779Z,17.53
2023-04-21T12:16:17.202Z,17.34
2023-04-21T12:18:44.118Z,17.13
2023-04-21T12:21:10.606Z,17.09
2023-04-21T12:23:39.090Z,17.23
2023-04-21T12:26:05.599Z,17.92
2023-04-21T12:28:31.926Z,18.03
2023-04-21T12:30:58.344Z,17.99
2023-04-21T12:33:24.802Z,17.96
2023-04-21T12:35:51.410Z,17.71
2023-04-21T12:38:17.750Z,18.36
2023-04-21T12:40:44.116Z,17.77
2023-04-21T12:43:10.511Z,18.02
2023-04-21T12:45:37.055Z,17.60
2023-04-21T12:48:05.013Z,17.97
2023-04-21T12:50:31.427Z,18.10
2023-04-21T12:52:57.828Z,18.20
2023-04-21T12:55:24.287Z,17.79
2023-04-21T12:57:50.939Z,17.84
2023-04-21T13:00:17.292Z,18.53
2023-04-21T13:02:43.813Z,18.00
2023-04-21T13:05:11.964Z,18.75
2023-04-21T13:07:38.408Z,18.20
2023-04-21T13:10:06.382Z,18.61
2023-04-21T13:12:32.806Z,18.73
2023-04-21T13:14:59.158Z,18.66
2023-04-21T13:17:25.633Z,19.27
2023-04-21T13:19:52.433Z,19.06
2023-04-21T13:22:18.850Z,18.92
2023-04-21T13:24:45.479Z,18.71
2023-04-21T13:27:11.898Z,19.33
2023-04-21T13:29:38.273Z,19.33
2023-04-21T13:32:04.745Z,19.27
2023-04-21T13:34:31.311Z,19.42
2023-04-21T13:36:57.854Z,19.62
2023-04-21T13:39:24.439Z,19.86
2023-04-21T13:41:53.560Z,19.82
2023-04-21T13:44:21.601Z,19.06
2023-04-21T13:46:48.204Z,19.03
2023-04-21T13:49:14.675Z,19.29
2023-04-21T13:51:41.127Z,19.30
2023-04-21T13:54:07.488Z,19.45
2023-04-21T13:56:33.894Z,19.63
2023-04-21T13:59:00.323Z,19.70
2023-04-21T14:01:26.794Z,19.91
2023-04-21T14:03:54.050Z,19.63
2023-04-21T14:06:20.770Z,19.73
2023-04-21T14:08:47.134Z,19.47
2023-04-21T14:11:13.489Z,19.39
2023-04-21T14:13:51.983Z,19.76
2023-04-21T14:16:26.478Z,19.20
2023-04-21T14:18:53.016Z,19.39
2023-04-21T14:21:19.402Z,20.27
2023-04-21T14:23:45.804Z,20.75
2023-04-21T14:26:12.329Z,20.33
2023-04-21T14:28:38.703Z,20.52
2023-04-21T14:31:05.098Z,20.25
2023-04-21T14:33:33.342Z,20.00
2023-04-21T14:35:59.824Z,19.67
2023-04-21T14:38:26.194Z,19.85
2023-04-21T14:40:54.570Z,19.93
2023-04-21T14:43:21.027Z,19.82
2023-04-21T14:45:47.453Z,20.09
2023-04-21T14:48:14.319Z,20.05
2023-04-21T14:50:40.860Z,20.22
2023-04-21T14:53:07.284Z,20.69
2023-04-21T14:55:33.770Z,20.97
2023-04-21T14:58:00.258Z,20.79
2023-04-21T15:00:27.642Z,20.82
2023-04-21T15:02:54.122Z,20.79
2023-04-21T15:05:21.013Z,20.81
2023-04-21T15:07:47.418Z,20.96
2023-04-21T15:10:13.924Z,21.18
2023-04-21T15:12:41.748Z,21.01
2023-04-21T15:15:08.242Z,20.83
2023-04-21T15:17:34.613Z,20.45
2023-04-21T15:20:01.021Z,20.63
2023-04-21T15:22:27.451Z,20.69
2023-04-21T15:24:54.657Z,20.57
2023-04-21T15:27:21.704Z,20.86
2023-04-21T15:29:48.149Z,20.89
2023-04-21T15:32:14.559Z,20.64
2023-04-21T15:34:40.992Z,20.70
2023-04-21T15:37:07.327Z,20.78
2023-04-21T15:39:36.888Z,20.95
2023-04-21T15:42:05.591Z,21.26
2023-04-21T15:44:34.933Z,21.46
2023-04-21T15:47:01.892Z,21.91
2023-04-21T15:49:28.471Z,21.44
2023-04-21T15:51:54.886Z,21.70
2023-04-21T15:54:21.261Z,22.07
2023-04-21T15:56:47.616Z,21.81
2023-04-21T15:59:13.998Z,21.89
2023-04-21T16:01:40.514Z,21.78
2023-04-21T16:04:07.127Z,21.88
2023-04-21T16:06:33.778Z,21.99
2023-04-21T16:09:00.323Z,21.64
2023-04-21T16:11:28.021Z,21.59
2023-04-21T16:13:54.453Z,21.56
2023-04-21T16:16:20.933Z,21.83
2023-04-21T16:18:47.325Z,22.08
2023-04-21T16:21:13.681Z,22.12
2023-04-21T16:23:40.382Z,21.92
2023-04-21T16:26:08.839Z,21.76
2023-04-21T16:28:35.550Z,21.84
2023-04-21T16:31:01.940Z,21.68
2023-04-21T16:33:28.401Z,21.27
2023-04-21T16:35:56.085Z,21.36
2023-04-21T16:38:23.823Z,21.03
2023-04-21T16:40:50.396Z,20.99
2023-04-21T16:43:16.781Z,21.13
2023-04-21T16:45:43.337Z,21.28
2023-04-21T16:48:09.879Z,21.22
2023-04-21T16:50:36.375Z,21.08
2023-04-21T16:53:02.788Z,20.69
2023-04-21T16:55:29.310Z,21.35
2023-04-21T16:57:56.063Z,21.11
2023-04-21T17:00:22.620Z,21.29
2023-04-21T17:02:49.160Z,21.31
2023-04-21T17:05:16.621Z,21.32
2023-04-21T17:07:44.545Z,20.20
2023-04-21T17:10:10.919Z,19.19
2023-04-21T17:12:37.591Z,18.88
2023-04-21T17:15:05.138Z,19.14
2023-04-21T17:17:31.536Z,19.00
2023-04-21T17:19:58.108Z,18.84
2023-04-21T17:22:24.496Z,18.28
2023-04-21T17:24:53.651Z,18.20
2023-04-21T17:27:20.843Z,18.36
2023-04-21T17:29:47.279Z,18.58
2023-04-21T17:32:14.304Z,18.91
2023-04-21T17:34:40.976Z,18.97
2023-04-21T17:37:07.452Z,19.17
2023-04-21T17:39:34.021Z,19.16
2023-04-21T17:42:01.896Z,19.14
2023-04-21T17:44:28.267Z,19.04
2023-04-21T17:46:54.630Z,19.32
2023-04-21T17:49:22.949Z,18.88
2023-04-21T17:51:49.290Z,19.03
2023-04-21T17:54:16.939Z,19.11
2023-04-21T17:56:43.383Z,19.13
2023-04-21T17:59:09.815Z,19.48
2023-04-21T18:01:36.293Z,19.45
2023-04-21T18:04:02.857Z,19.42
2023-04-21T18:06:29.467Z,19.36
2023-04-21T18:08:55.981Z,19.19
2023-04-21T18:11:22.572Z,19.40
2023-04-21T18:13:48.974Z,19.03
2023-04-21T18:16:15.469Z,18.74
2023-04-21T18:18:41.844Z,18.65
2023-04-21T18:21:08.278Z,18.77
2023-04-21T18:23:34.780Z,18.56
2023-04-21T18:26:01.997Z,18.32
2023-04-21T18:28:29.524Z,18.31
2023-04-21T18:30:55.869Z,18.59
2023-04-21T18:33:22.250Z,18.50
2023-04-21T18:35:48.783Z,18.33
2023-04-21T18:38:15.444Z,18.47
2023-04-21T18:40:41.863Z,18.08
2023-04-21T18:43:08.325Z,17.79
2023-04-21T18:45:34.712Z,18.14
2023-04-21T18:48:01.114Z,18.15
2023-04-21T18:50:27.577Z,17.93
2023-04-21T18:52:54.819Z,17.88
2023-04-21T18:55:21.326Z,17.99
2023-04-21T18:57:47.795Z,17.97
2023-04-21T19:00:14.251Z,17.75
2023-04-21T19:02:41.177Z,17.71
2023-04-21T19:05:07.721Z,17.66
2023-04-21T19:07:37.260Z,17.53
2023-04-21T19:10:03.732Z,17.65
2023-04-21T19:12:30.067Z,17.67
2023-04-21T19:14:56.690Z,17.70
2023-04-21T19:17:23.215Z,17.93
2023-04-21T19:19:50.997Z,18.02
2023-04-21T19:22:17.484Z,17.99
2023-04-21T19:24:43.878Z,17.81
2023-04-21T19:27:10.512Z,17.88
2023-04-21T19:29:37.053Z,17.80
2023-04-21T19:32:03.636Z,17.67
2023-04-21T19:34:30.311Z,17.72
2023-04-21T19:36:56.745Z,16.90
2023-04-21T19:39:23.241Z,16.36
2023-04-21T19:41:49.646Z,16.18
2023-04-21T19:44:16.046Z,16.07
2023-04-21T19:46:43.107Z,16.03
2023-04-21T19:49:12.879Z,15.55
2023-04-21T19:51:39.979Z,15.76
2023-04-21T19:54:11.564Z,15.76
2023-04-21T19:56:38.626Z,16.03
2023-04-21T19:59:05.638Z,15.56
2023-04-21T20:01:32.514Z,16.19
2023-04-21T20:03:59.843Z,16.27
2023-04-21T20:06:26.839Z,16.09
2023-04-21T20:08:53.216Z,16.00
2023-04-21T20:11:19.644Z,15.75
2023-04-21T20:13:46.152Z,16.05
2023-04-21T20:16:12.712Z,15.76
2023-04-21T20:18:39.107Z,15.79
2023-04-21T20:21:06.383Z,16.23
2023-04-21T20:23:32.760Z,16.05
2023-04-21T20:25:59.220Z,16.47
2023-04-21T20:28:27.596Z,16.85
2023-04-21T20:30:56.174Z,16.84
2023-04-21T20:33:22.676Z,16.68
2023-04-21T20:35:49.595Z,16.39
2023-04-21T20:38:16.381Z,15.86
2023-04-21T20:40:42.933Z,15.40
2023-04-21T20:43:10.081Z,15.39
2023-04-21T20:45:36.492Z,15.75
2023-04-21T20:48:02.894Z,15.95
2023-04-21T20:50:29.283Z,16.15
2023-04-21T20:52:56.714Z,15.93
2023-04-21T20:55:23.065Z,15.94
2023-04-21T20:57:49.659Z,15.98
2023-04-21T21:00:16.167Z,15.92
2023-04-21T21:02:42.773Z,15.83
2023-04-21T21:05:09.297Z,16.29
2023-04-21T21:07:35.795Z,16.01
2023-04-21T21:10:03.523Z,16.23
2023-04-21T21:12:29.896Z,16.10
2023-04-21T21:14:56.380Z,15.40
2023-04-21T21:17:22.847Z,15.38
2023-04-21T21:19:49.496Z,15.22
2023-04-21T21:22:16.034Z,15.49
2023-04-21T21:24:43.025Z,15.61
2023-04-21T21:27:09.417Z,15.85
2023-04-21T21:29:36.043Z,15.98
2023-04-21T21:32:03.086Z,15.73
2023-04-21T21:34:29.838Z,15.88
2023-04-21T21:36:56.249Z,15.88
2023-04-21T21:39:22.610Z,15.41
2023-04-21T21:41:49.117Z,15.48
2023-04-21T21:44:15.524Z,15.37
2023-04-21T21:46:42.015Z,15.54
2023-04-21T21:49:08.420Z,15.69
2023-04-21T21:51:34.778Z,15.52
2023-04-21T21:54:01.358Z,15.45
2023-04-21T21:56:27.827Z,15.78
2023-04-21T21:58:54.426Z,15.53
2023-04-21T22:01:20.941Z,15.21
2023-04-21T22:03:47.524Z,15.26
2023-04-21T22:06:15.586Z,15.17
2023-04-21T22:08:43.717Z,15.56
2023-04-21T22:11:10.213Z,14.74
2023-04-21T22:13:36.653Z,14.60
2023-04-21T22:16:03.087Z,15.07
2023-04-21T22:18:30.121Z,15.09
2023-04-21T22:20:56.512Z,15.52
2023-04-21T22:23:22.938Z,15.26
2023-04-21T22:25:49.328Z,15.21
2023-04-21T22:28:15.717Z,15.04
2023-04-21T22:30:42.033Z,15.03
2023-04-21T22:33:08.509Z,14.85
2023-04-21T22:35:34.960Z,14.40
2023-04-21T22:38:01.644Z,14.72
2023-04-21T22:40:28.182Z,15.00
2023-04-21T22:42:54.760Z,14.85
2023-04-21T22:45:21.160Z,14.42
2023-04-21T22:47:49.181Z,14.68
2023-04-21T22:50:15.973Z,15.04
2023-04-21T22:52:42.387Z,15.12
2023-04-21T22:55:09.208Z,15.25
2023-04-21T22:57:37.413Z,15.25
2023-04-21T23:00:03.822Z,15.19
2023-04-21T23:02:30.455Z,15.11
2023-04-21T23:04:56.977Z,14.53
2023-04-21T23:07:23.522Z,14.63
2023-04-21T23:09:50.075Z,14.58
2023-04-21T23:12:16.474Z,14.40
2023-04-21T23:14:42.856Z,14.42
2023-04-21T23:17:09.286Z,14.58
2023-04-21T23:19:35.841Z,14.42
2023-04-21T23:22:02.301Z,14.60
2023-04-21T23:24:28.700Z,13.97
2023-04-21T23:26:55.182Z,14.10
2023-04-21T23:29:21.711Z,14.37
2023-04-21T23:31:48.136Z,14.34
2023-04-21T23:34:15.315Z,14.42
2023-04-21T23:36:41.856Z,14.24
2023-04-21T23:39:08.283Z,14.34
2023-04-21T23:41:34.636Z,14.70
2023-04-21T23:44:01.047Z,14.66
2023-04-21T23:46:27.656Z,14.66
2023-04-21T23:48:54.166Z,14.54
2023-04-21T23:51:21.512Z,14.85
2023-04-21T23:53:47.914Z,14.78
2023-04-21T23:56:14.352Z,14.72
2023-04-21T23:58:40.800Z,14.91
